Startpagina
METAR-TAF:

METAR-TAF

Vliegvelden :

Beira, Mozambique

breedte: 19-48S, lengte: 034-54E, hoogte: 8 m

Actueel weer

Dit bericht is 9 uur en het 34 minuten geleden gemaakt, om 04:00 UTC
Wind 7 kt uit het westen
Temperatuur 24°C
Vochtigheid 94%
Druk 1009 hPa
Zicht 10 km of meer
Weinig wolken op 2000 ft
Verspreide wolken

METAR: FQBR 230400Z 27007KT 9999 FEW020 SCT/// 24/23 Q1009

Tijdstip: 15:34 (13:34 UTC)

Verwachting

Dit bericht is 3 uur en het 34 minuten geleden gemaakt, om 10:00 UTC
Verwachting geldig van 23 om 12 UTC tot 24 om 18 UTC
Wind 12 kt uit het zuidzuidoosten
Zicht 10 km of meer
Verspreide wolken op 2000 ft
Wijzigt naar
van 23 om 20 UTC tot 23 om 22 UTC
Wind 8 kt uit het zuidwesten
Wijzigt naar
van 24 om 12 UTC tot 24 om 14 UTC
Wind 12 kt uit het zuidoosten

TAF: FQBR 231000Z 2312/2418 15012KT 9999 SCT020 TX30/2313Z TN24/2403Z BECMG 2320/2322 22008KT BECMG 2412/2414 14012KT

Waarnemingen en weersverwachtingen van meer dan 4000 vliegvelden (METAR en TAF).

De beschikbare stations zijn de gele en rode punten op de kaart.

Ga met uw muis naar het station om de naam te zien.

Klik dan om waarnemingen en weersverwachtingen te zien.

kaart wijzigen: klik op de groene knoppen met een zwart kruis om in te zoomen, op de groene knop met een streepje om uit te zoomen of op de groene pijlen voor aangrenzende kaarten.


METAR-TAF: